Time;durP1;ratioP1;P1;durP2;ratioP2;P2;SDS_P1;SDS_P2;PMS_P1;PMS_P2;Temp;Humidity;BMP_temperature;BMP_pressure;BME280_temperature;BME280_humidity;BME280_pressure;Samples;Min_cycle;Max_cycle;Signal;HPM_P1;HPM_P2
2023/01/28 00:01:18;;;;;;;67.40;35.10;;;;;;;1.09;83.99;101015.52;130128;1267;114740;-60
2023/01/28 00:04:20;;;;;;;59.60;32.40;;;;;;;1.08;83.89;101017.63;130257;1267;114727;-59
2023/01/28 00:07:25;;;;;;;62.40;31.90;;;;;;;1.06;83.90;101018.33;130243;1267;115313;-61
2023/01/28 00:10:27;;;;;;;53.40;31.20;;;;;;;1.07;84.04;101018.86;129867;1254;114998;-60
2023/01/28 00:13:31;;;;;;;64.40;32.30;;;;;;;1.07;83.78;101018.16;129919;1261;114849;-61
2023/01/28 00:16:33;;;;;;;63.40;31.70;;;;;;;1.08;84.08;101014.11;129917;1260;114721;-60
2023/01/28 00:19:36;;;;;;;60.00;31.00;;;;;;;1.09;83.99;101019.03;130098;1256;114815;-60
2023/01/28 00:22:39;;;;;;;59.60;31.10;;;;;;;1.11;84.29;101017.98;129943;1260;114775;-60
2023/01/28 00:25:41;;;;;;;58.90;30.10;;;;;;;1.13;84.20;101013.23;130121;1257;114774;-60
2023/01/28 00:28:44;;;;;;;60.70;33.00;;;;;;;1.15;84.30;101010.78;129688;1260;114858;-60
2023/01/28 00:31:46;;;;;;;55.40;31.00;;;;;;;1.16;84.10;101007.60;129962;1258;114789;-59
2023/01/28 00:34:48;;;;;;;59.80;31.30;;;;;;;1.18;84.40;101009.70;129957;1257;114750;-60
2023/01/28 00:37:51;;;;;;;55.80;30.00;;;;;;;1.17;84.05;101008.48;129788;1260;114779;-61
2023/01/28 00:40:54;;;;;;;52.50;29.20;;;;;;;1.17;84.17;101008.67;129821;1262;115246;-60
2023/01/28 00:43:57;;;;;;;57.40;32.10;;;;;;;1.16;83.97;101009.20;130176;1266;115214;-61
2023/01/28 00:46:59;;;;;;;67.40;32.10;;;;;;;1.15;83.89;101003.73;130128;1256;114871;-62
2023/01/28 00:50:03;;;;;;;54.50;28.90;;;;;;;1.11;84.07;101002.86;130035;1254;114714;-63
2023/01/28 00:53:05;;;;;;;57.70;28.50;;;;;;;1.07;83.94;101000.73;130087;1266;115241;-59
2023/01/28 00:56:10;;;;;;;56.80;30.00;;;;;;;1.04;84.02;100995.27;130178;1257;115057;-60
2023/01/28 00:59:12;;;;;;;;;;;;;;;1.03;83.83;100993.35;129753;1257;114834;-61
2023/01/28 01:02:16;;;;;;;58.90;30.20;;;;;;;1.00;83.84;100993.86;130212;1257;114795;-60
2023/01/28 01:05:18;;;;;;;63.90;29.30;;;;;;;0.97;84.09;100992.64;130240;1256;114812;-60
2023/01/28 01:08:33;;;;;;;60.10;29.00;;;;;;;0.93;83.81;100994.39;130228;1260;114699;-61
2023/01/28 01:11:36;;;;;;;;;;;;;;;0.93;83.85;101001.07;130031;1276;128947;-61
2023/01/28 01:14:39;;;;;;;53.60;27.40;;;;;;;0.91;83.99;101004.05;129953;1259;114828;-60
2023/01/28 01:17:43;;;;;;;52.00;26.20;;;;;;;0.88;83.94;101006.88;129947;1256;115184;-60
2023/01/28 01:20:46;;;;;;;49.40;26.70;;;;;;;0.88;83.98;101011.80;130090;1257;115305;-60
2023/01/28 01:23:48;;;;;;;54.30;28.60;;;;;;;0.88;83.68;101015.14;130036;1267;114797;-61
2023/01/28 01:26:52;;;;;;;52.40;26.80;;;;;;;0.88;83.63;101018.66;129907;1258;114872;-61
2023/01/28 01:29:54;;;;;;;48.10;26.60;;;;;;;0.89;84.10;101019.36;129994;1261;114711;-61
2023/01/28 01:32:56;;;;;;;50.50;27.80;;;;;;;0.91;83.84;101018.30;130040;1254;115254;-60
2023/01/28 01:35:59;;;;;;;54.10;28.30;;;;;;;0.92;83.77;101022.87;130012;1254;114757;-59
2023/01/28 01:39:01;;;;;;;51.00;27.20;;;;;;;0.92;83.75;101028.33;129952;1266;114757;-60
2023/01/28 01:42:04;;;;;;;49.40;26.80;;;;;;;0.91;83.99;101034.66;130095;1257;115182;-60
2023/01/28 01:45:14;;;;;;;46.90;27.70;;;;;;;0.91;84.03;101040.46;130282;1255;114812;-61
2023/01/28 01:48:20;;;;;;;40.60;24.50;;;;;;;0.91;84.29;101042.04;130173;1275;128815;-60
2023/01/28 01:51:27;;;;;;;46.90;26.70;;;;;;;0.91;84.18;101042.75;130011;1257;115243;-61
2023/01/28 01:54:30;;;;;;;44.40;24.60;;;;;;;0.88;84.11;101044.68;130089;1257;114699;-59
2023/01/28 01:57:35;;;;;;;36.70;21.90;;;;;;;0.86;83.99;101050.83;130289;1257;114641;-60
2023/01/28 02:00:38;;;;;;;44.60;23.70;;;;;;;0.82;83.65;101050.66;130129;1275;116339;-64
2023/01/28 02:04:02;;;;;;;39.80;24.60;;;;;;;0.77;83.81;101050.63;130360;1275;128113;-65
2023/01/28 02:07:07;;;;;;;38.70;21.90;;;;;;;0.73;83.80;101050.27;130207;1275;115227;-63
2023/01/28 02:10:10;;;;;;;35.20;22.60;;;;;;;0.70;83.98;101050.08;129843;1257;114671;-65
2023/01/28 02:13:14;;;;;;;36.30;21.70;;;;;;;0.68;83.87;101054.64;130374;1257;114920;-64
2023/01/28 02:16:17;;;;;;;36.00;21.00;;;;;;;0.64;83.68;101052.54;130227;1256;114753;-62
2023/01/28 02:19:20;;;;;;;31.40;20.10;;;;;;;0.63;83.86;101056.39;130339;1254;114768;-62
2023/01/28 02:22:48;;;;;;;34.30;21.50;;;;;;;0.61;83.85;101055.51;130090;1267;114773;-63
2023/01/28 02:25:50;;;;;;;33.30;21.40;;;;;;;0.60;84.01;101057.95;129728;1260;114712;-62
2023/01/28 02:29:01;;;;;;;34.00;20.30;;;;;;;0.59;83.97;101057.42;130070;1254;115385;-63
2023/01/28 02:32:09;;;;;;;34.70;20.10;;;;;;;0.55;83.77;101054.60;130014;1264;114676;-62
2023/01/28 02:35:17;;;;;;;33.30;20.70;;;;;;;0.53;84.05;101052.30;130188;1275;128601;-67
2023/01/28 02:38:29;;;;;;;32.10;19.50;;;;;;;0.54;83.91;101053.90;129802;1275;115195;-61
2023/01/28 02:41:37;;;;;;;32.10;20.80;;;;;;;0.55;84.35;101057.41;130029;1275;115181;-63
2023/01/28 02:44:39;;;;;;;36.50;21.40;;;;;;;0.57;84.27;101059.37;130327;1264;115192;-66
2023/01/28 02:47:57;;;;;;;35.30;20.80;;;;;;;0.57;83.99;101060.94;130240;1266;114788;-66
2023/01/28 02:51:09;;;;;;;38.00;22.60;;;;;;;0.58;84.18;101061.29;130123;1262;128049;-60
2023/01/28 02:54:20;;;;;;;33.10;20.40;;;;;;;0.59;84.30;101059.35;130432;1254;115317;-59
2023/01/28 02:57:28;;;;;;;33.40;20.00;;;;;;;0.60;84.00;101060.06;129828;1254;114867;-59
2023/01/28 03:00:40;;;;;;;35.50;21.90;;;;;;;0.61;84.11;101059.73;130113;1254;115422;-63
2023/01/28 03:04:02;;;;;;;34.70;21.10;;;;;;;0.59;84.14;101063.92;129667;1260;115151;-59
2023/01/28 03:07:06;;;;;;;38.90;21.20;;;;;;;0.60;83.82;101061.83;130092;1258;127913;-60
2023/01/28 03:10:13;;;;;;;36.50;22.30;;;;;;;0.60;84.09;101062.89;130124;1256;115213;-61
2023/01/28 03:37:21;;;;;;;36.60;22.40;;;;;;;0.51;83.98;101066.01;129612;1261;114878;-60
2023/01/28 03:40:25;;;;;;;40.00;24.00;;;;;;;0.48;84.05;101069.33;129936;1258;115254;-59
2023/01/28 03:43:30;;;;;;;33.30;19.80;;;;;;;0.46;84.25;101068.80;130067;1257;114782;-63
2023/01/28 03:46:34;;;;;;;44.80;23.70;;;;;;;0.41;84.20;101067.20;129841;1269;114829;-60
2023/01/28 03:49:41;;;;;;;39.70;22.60;;;;;;;0.36;84.10;101068.40;129805;1257;114811;-61
2023/01/28 03:52:44;;;;;;;34.70;21.70;;;;;;;0.36;84.46;101072.44;129695;1260;114870;-61
2023/01/28 03:55:49;;;;;;;39.70;22.40;;;;;;;0.38;84.31;101076.50;130109;1257;115078;-59
2023/01/28 03:58:56;;;;;;;34.40;22.40;;;;;;;0.40;84.35;101077.02;130028;1268;114750;-60
2023/01/28 04:01:58;;;;;;;35.50;21.60;;;;;;;0.41;84.38;101074.74;129735;1262;115116;-60
2023/01/28 04:05:05;;;;;;;37.90;22.30;;;;;;;0.40;84.13;101072.81;130188;1273;115157;-60
2023/01/28 04:08:08;;;;;;;33.30;22.00;;;;;;;0.38;84.00;101075.27;130094;1256;114746;-60
2023/01/28 04:11:18;;;;;;;37.60;20.80;;;;;;;0.38;84.25;101073.69;129902;1261;114728;-62
2023/01/28 04:14:20;;;;;;;39.20;21.20;;;;;;;0.36;83.91;101081.23;130015;1275;114945;-61
2023/01/28 04:17:23;;;;;;;34.50;21.70;;;;;;;0.34;84.06;101084.20;130063;1260;114809;-60
2023/01/28 04:20:25;;;;;;;34.40;20.70;;;;;;;0.33;84.10;101085.08;130101;1256;115396;-60
2023/01/28 04:23:30;;;;;;;34.30;22.70;;;;;;;0.33;84.08;101085.27;130056;1257;114706;-59
2023/01/28 04:26:33;;;;;;;;;;;;;;;0.35;84.21;101084.56;129958;1257;114705;-61
2023/01/28 04:29:35;;;;;;;38.50;22.40;;;;;;;0.34;84.12;101083.67;130020;1257;114696;-60
2023/01/28 04:32:38;;;;;;;41.50;23.30;;;;;;;0.33;83.99;101085.42;130076;1257;115268;-59
2023/01/28 04:35:40;;;;;;;42.70;25.50;;;;;;;0.34;84.30;101091.77;130165;1257;115164;-60
2023/01/28 04:38:42;;;;;;;43.70;25.00;;;;;;;0.34;84.27;101095.61;129681;1260;114792;-60
2023/01/28 04:41:44;;;;;;;40.00;25.40;;;;;;;0.37;84.32;101095.81;129995;1267;115138;-62
2023/01/28 04:44:47;;;;;;;44.50;25.30;;;;;;;0.40;84.03;101095.48;129896;1257;114754;-60
2023/01/28 04:47:49;;;;;;;46.90;24.80;;;;;;;0.40;84.13;101096.55;129996;1267;114728;-60
2023/01/28 04:50:51;;;;;;;40.00;24.20;;;;;;;0.41;84.06;101104.27;130011;1276;128159;-62
2023/01/28 04:53:53;;;;;;;39.40;22.90;;;;;;;0.39;83.85;101107.78;130200;1275;114727;-60
2023/01/28 04:56:55;;;;;;;43.20;23.90;;;;;;;0.38;84.05;101105.13;130196;1266;114750;-60
2023/01/28 04:59:58;;;;;;;41.90;24.30;;;;;;;0.36;83.88;101110.04;130104;1254;114769;-60
2023/01/28 05:03:00;;;;;;;37.50;23.20;;;;;;;0.36;84.12;101110.05;130351;1257;114712;-60
2023/01/28 05:06:03;;;;;;;39.30;22.60;;;;;;;0.37;83.94;101110.93;130183;1254;114770;-60
2023/01/28 05:09:06;;;;;;;41.30;25.10;;;;;;;0.37;84.13;101117.08;130056;1254;114696;-60
2023/01/28 05:12:08;;;;;;;44.20;28.20;;;;;;;0.37;84.14;101114.27;130172;1256;115325;-66
2023/01/28 05:15:10;;;;;;;44.40;27.50;;;;;;;0.37;83.86;101117.61;130385;1253;115674;-63
2023/01/28 05:18:13;;;;;;;47.90;28.60;;;;;;;0.35;83.92;101117.42;129907;1260;115502;-66
2023/01/28 05:21:15;;;;;;;47.20;30.20;;;;;;;0.34;83.75;101120.75;130284;1256;115128;-59
2023/01/28 05:24:17;;;;;;;46.30;30.40;;;;;;;0.32;83.90;101127.06;130223;1267;114718;-63
2023/01/28 05:27:19;;;;;;;50.20;30.40;;;;;;;0.30;84.29;101129.70;130154;1258;114778;-67
2023/01/28 05:30:22;;;;;;;51.80;32.80;;;;;;;0.33;84.04;101136.91;129898;1260;114968;-66
2023/01/28 05:33:24;;;;;;;51.90;31.70;;;;;;;0.34;84.05;101138.14;130189;1256;114737;-65
2023/01/28 05:36:27;;;;;;;52.70;31.00;;;;;;;0.30;83.67;101139.70;130067;1260;114778;-65
2023/01/28 05:39:30;;;;;;;49.20;30.80;;;;;;;0.26;83.54;101140.02;130027;1260;114740;-67
2023/01/28 05:42:32;;;;;;;48.50;32.00;;;;;;;0.24;83.58;101138.45;129903;1254;114933;-67
2023/01/28 05:45:35;;;;;;;51.00;30.70;;;;;;;0.22;83.88;101137.54;130086;1267;114854;-66
2023/01/28 05:48:37;;;;;;;59.80;32.30;;;;;;;0.20;83.82;101140.34;130072;1266;114637;-63
2023/01/28 05:51:40;;;;;;;51.70;31.30;;;;;;;0.18;83.84;101141.02;130121;1269;114734;-67
2023/01/28 05:54:42;;;;;;;53.50;32.60;;;;;;;0.18;83.82;101136.64;130052;1276;126889;-66
2023/01/28 05:57:44;;;;;;;50.60;30.60;;;;;;;0.19;83.85;101140.67;129981;1257;114761;-67
2023/01/28 06:00:47;;;;;;;54.70;29.60;;;;;;;0.19;83.90;101137.69;130041;1253;114788;-66
2023/01/28 06:03:49;;;;;;;45.00;29.20;;;;;;;0.19;83.71;101138.75;130083;1256;115126;-65
2023/01/28 06:06:52;;;;;;;48.80;31.00;;;;;;;0.19;83.70;101143.31;129852;1260;116355;-66
2023/01/28 06:09:54;;;;;;;48.50;29.50;;;;;;;0.18;83.74;101141.02;130119;1256;114757;-65
2023/01/28 06:12:56;;;;;;;44.90;28.70;;;;;;;0.18;83.56;101147.52;130140;1254;114714;-64
2023/01/28 06:15:59;;;;;;;48.60;30.00;;;;;;;0.16;83.67;101152.80;130221;1256;114882;-67
2023/01/28 06:19:01;;;;;;;46.50;28.20;;;;;;;0.13;83.48;101151.71;130140;1276;116309;-65
2023/01/28 06:22:04;;;;;;;48.40;29.90;;;;;;;0.10;83.59;101155.02;130239;1257;114721;-64
2023/01/28 06:25:07;;;;;;;49.50;30.50;;;;;;;0.09;83.57;101154.84;130280;1253;114787;-62
2023/01/28 06:28:09;;;;;;;48.80;30.60;;;;;;;0.08;83.54;101154.67;130198;1256;114690;-64
2023/01/28 06:31:11;;;;;;;45.90;30.10;;;;;;;0.09;83.80;101153.96;130188;1257;114772;-66
2023/01/28 06:34:14;;;;;;;40.00;25.90;;;;;;;0.09;83.66;101156.41;130140;1276;128943;-65
2023/01/28 06:37:17;;;;;;;41.00;28.00;;;;;;;0.09;83.63;101161.69;130175;1266;114747;-64
2023/01/28 06:40:21;;;;;;;42.30;27.00;;;;;;;0.08;83.69;101164.32;130064;1254;115236;-65
2023/01/28 06:43:26;;;;;;;41.60;27.60;;;;;;;0.08;83.71;101167.66;130072;1256;114874;-64
2023/01/28 06:46:29;;;;;;;;;;;;;;;0.10;83.66;101166.78;129753;1261;114904;-66
2023/01/28 06:49:31;;;;;;;42.40;28.40;;;;;;;0.10;83.61;101173.81;130104;1257;114820;-64
2023/01/28 06:52:33;;;;;;;46.40;29.60;;;;;;;0.08;83.43;101182.06;130097;1256;115380;-66
2023/01/28 06:55:36;;;;;;;50.50;30.50;;;;;;;0.07;83.50;101184.68;130214;1256;114719;-64
2023/01/28 06:58:38;;;;;;;43.20;27.20;;;;;;;0.05;83.41;101185.38;129845;1254;115150;-65
2023/01/28 07:01:40;;;;;;;42.80;27.30;;;;;;;0.06;83.46;101183.27;130073;1254;114747;-65
2023/01/28 07:04:42;;;;;;;35.90;24.20;;;;;;;0.04;83.32;101190.98;130111;1254;114788;-64
2023/01/28 07:07:45;;;;;;;42.00;25.60;;;;;;;-0.03;83.18;101193.04;129660;1255;115167;-66
2023/01/28 07:10:48;;;;;;;41.50;27.50;;;;;;;-0.03;83.40;101197.95;129949;1256;114836;-65
2023/01/28 07:13:50;;;;;;;40.30;26.60;;;;;;;-0.01;83.57;101202.19;130130;1253;114716;-64
2023/01/28 07:16:53;;;;;;;39.70;26.60;;;;;;;-0.01;83.51;101205.88;130104;1254;115466;-64
2023/01/28 07:19:55;;;;;;;39.90;25.30;;;;;;;-0.02;83.56;101207.98;130057;1256;115304;-65
2023/01/28 07:22:57;;;;;;;36.70;25.00;;;;;;;-0.01;83.25;101213.24;130188;1254;114782;-65
2023/01/28 07:26:03;;;;;;;36.80;24.60;;;;;;;-0.03;83.32;101217.27;130090;1256;114794;-62
2023/01/28 07:29:08;;;;;;;38.30;25.50;;;;;;;-0.05;83.12;101219.71;129761;1275;128385;-61
2023/01/28 07:32:10;;;;;;;40.10;27.00;;;;;;;-0.09;83.23;101221.95;130155;1259;115166;-64
2023/01/28 07:35:13;;;;;;;40.80;27.50;;;;;;;-0.10;83.45;101224.23;130232;1256;114794;-60
2023/01/28 07:38:15;;;;;;;41.80;28.00;;;;;;;-0.09;83.35;101222.84;130171;1254;115147;-63
2023/01/28 07:41:18;;;;;;;51.30;29.30;;;;;;;-0.09;83.55;101223.02;129987;1258;475713;-62
2023/01/28 07:44:20;;;;;;;42.80;28.50;;;;;;;-0.07;83.54;101220.58;130164;1256;114802;-62
2023/01/28 07:47:22;;;;;;;46.70;29.80;;;;;;;-0.06;83.32;101223.38;130186;1254;114809;-62
2023/01/28 07:50:27;;;;;;;55.30;32.80;;;;;;;-0.08;83.30;101221.09;130164;1257;115096;-66
2023/01/28 07:53:29;;;;;;;47.70;29.90;;;;;;;-0.11;83.10;101217.19;130200;1253;114712;-65
2023/01/28 07:56:31;;;;;;;44.10;29.40;;;;;;;-0.12;83.26;101217.72;130115;1254;114652;-64
2023/01/28 07:59:35;;;;;;;40.10;27.40;;;;;;;-0.14;83.17;101218.05;130108;1257;114771;-64
2023/01/28 08:02:37;;;;;;;42.70;27.90;;;;;;;-0.16;83.11;101222.24;130143;1275;114788;-60
2023/01/28 08:05:48;;;;;;;44.40;29.70;;;;;;;-0.18;83.19;101227.50;130161;1254;114727;-63
2023/01/28 08:08:50;;;;;;;40.00;27.40;;;;;;;-0.17;83.25;101227.34;129759;1261;115327;-60
2023/01/28 08:11:53;;;;;;;46.20;30.00;;;;;;;-0.16;83.40;101230.84;130276;1256;114738;-61
2023/01/28 08:14:55;;;;;;;41.70;27.00;;;;;;;-0.16;83.15;101231.54;130157;1256;114805;-61
2023/01/28 08:17:59;;;;;;;44.60;28.50;;;;;;;-0.17;83.03;101231.89;130211;1268;114769;-61
2023/01/28 08:21:03;;;;;;;50.10;29.10;;;;;;;-0.16;83.26;101236.98;129741;1263;114774;-62
2023/01/28 08:24:06;;;;;;;43.80;28.00;;;;;;;-0.12;83.19;101237.55;130072;1253;128653;-62
2023/01/28 08:27:08;;;;;;;52.10;30.30;;;;;;;-0.08;83.19;101241.27;130171;1254;114725;-60
2023/01/28 08:30:11;;;;;;;49.80;30.60;;;;;;;-0.06;83.09;101244.27;130139;1256;115170;-62
2023/01/28 08:33:15;;;;;;;42.90;26.80;;;;;;;-0.06;83.17;101241.81;130078;1257;114699;-61
2023/01/28 08:36:17;;;;;;;44.20;28.40;;;;;;;-0.04;83.09;101244.48;130059;1254;114690;-61
2023/01/28 08:39:20;;;;;;;45.20;28.10;;;;;;;-0.02;82.81;101239.75;130210;1256;114796;-61
2023/01/28 08:42:22;;;;;;;41.70;28.00;;;;;;;-0.01;82.71;101244.34;130248;1254;127608;-60
2023/01/28 08:45:26;;;;;;;45.30;29.80;;;;;;;0.01;82.88;101244.34;130285;1257;116497;-61
2023/01/28 08:48:28;;;;;;;45.80;29.80;;;;;;;0.07;82.99;101248.79;130311;1253;115253;-60
2023/01/28 08:51:31;;;;;;;53.40;31.60;;;;;;;0.12;83.13;101244.63;130286;1253;114737;-60
2023/01/28 08:54:35;;;;;;;50.90;32.10;;;;;;;0.17;83.16;101250.81;130324;1275;115257;-63
2023/01/28 08:57:38;;;;;;;46.40;31.40;;;;;;;0.23;83.40;101250.69;129897;1275;129028;-63
2023/01/28 09:00:42;;;;;;;50.90;31.50;;;;;;;0.31;83.00;101247.94;130533;1256;115315;-66
2023/01/28 09:03:44;;;;;;;46.00;28.10;;;;;;;0.37;83.40;101247.28;130251;1253;114786;-66
2023/01/28 09:06:46;;;;;;;38.70;25.40;;;;;;;0.38;82.94;101245.36;129966;1254;114651;-64
2023/01/28 09:09:49;;;;;;;34.30;23.90;;;;;;;0.43;82.77;101245.57;130046;1270;114763;-65
2023/01/28 09:12:52;;;;;;;38.30;25.10;;;;;;;0.49;82.85;101245.97;130097;1276;114807;-64
2023/01/28 09:15:54;;;;;;;40.30;27.60;;;;;;;0.54;82.52;101248.10;130194;1276;114718;-61
2023/01/28 09:18:56;;;;;;;41.30;26.60;;;;;;;0.57;82.35;101247.96;130024;1276;114766;-64
2023/01/28 09:21:58;;;;;;;41.80;27.60;;;;;;;0.53;82.33;101253.73;129981;1276;114875;-64
2023/01/28 09:25:01;;;;;;;42.20;28.00;;;;;;;0.53;82.18;101264.45;129634;1261;114787;-63
2023/01/28 09:28:03;;;;;;;40.60;28.10;;;;;;;0.52;82.19;101265.14;129947;1276;114811;-67
2023/01/28 09:31:11;;;;;;;46.40;30.00;;;;;;;0.54;82.27;101263.77;130023;1275;115381;-66
2023/01/28 09:34:13;;;;;;;45.90;29.80;;;;;;;0.60;82.34;101268.90;129964;1257;129102;-68
2023/01/28 09:37:17;;;;;;;43.20;27.00;;;;;;;0.68;82.47;101268.06;130184;1253;114864;-68
2023/01/28 09:40:37;;;;;;;32.40;22.20;;;;;;;0.77;82.72;101270.23;130136;1254;115086;-68
2023/01/28 09:43:58;;;;;;;30.20;21.30;;;;;;;0.82;81.88;101271.50;129728;1261;115261;-66
2023/01/28 09:47:21;;;;;;;35.50;22.50;;;;;;;0.81;82.06;101272.20;129971;1257;114777;-65
2023/01/28 09:50:37;;;;;;;38.60;24.30;;;;;;;0.81;81.87;101276.95;129979;1273;128418;-69
2023/01/28 09:53:44;;;;;;;34.40;24.80;;;;;;;0.81;81.46;101276.25;130106;1259;115236;-69
2023/01/28 09:56:49;;;;;;;33.40;23.10;;;;;;;0.79;81.47;101277.64;129775;1254;115033;-67
2023/01/28 09:59:52;;;;;;;34.80;24.90;;;;;;;0.75;81.45;101274.80;130203;1272;114769;-66
2023/01/28 10:03:03;;;;;;;34.00;23.30;;;;;;;0.78;81.49;101275.52;130078;1257;114738;-68
2023/01/28 10:06:44;;;;;;;38.20;24.80;;;;;;;0.76;81.47;101275.86;130353;1275;129128;-68
2023/01/28 10:10:01;;;;;;;33.50;22.10;;;;;;;0.73;81.16;101277.42;129603;1260;114851;-69
2023/01/28 10:13:27;;;;;;;37.10;23.70;;;;;;;0.74;81.36;101271.45;129705;1259;114882;-65
2023/01/28 10:16:41;;;;;;;35.40;22.50;;;;;;;0.77;81.14;101271.64;129279;1264;114928;-66
2023/01/28 10:19:48;;;;;;;37.50;24.30;;;;;;;0.79;81.46;101271.66;129267;1268;114703;-67
2023/01/28 10:22:55;;;;;;;31.00;23.20;;;;;;;0.86;81.37;101273.64;129258;1281;127913;-67
2023/01/28 10:25:59;;;;;;;34.90;22.10;;;;;;;0.94;80.99;101269.46;129420;1267;115180;-65
2023/01/28 10:29:12;;;;;;;32.20;23.00;;;;;;;1.01;81.32;101265.45;129523;1263;114904;-67
2023/01/28 10:32:32;;;;;;;34.50;23.40;;;;;;;1.10;81.14;101267.26;129381;1265;114824;-67
2023/01/28 10:35:38;;;;;;;28.50;20.80;;;;;;;1.12;80.75;101266.04;129264;1280;114930;-68
2023/01/28 10:38:40;;;;;;;27.30;21.20;;;;;;;1.07;80.56;101272.88;129428;1275;128724;-66
2023/01/28 10:41:43;;;;;;;26.70;20.20;;;;;;;1.08;80.21;101274.81;129342;1259;115571;-69
2023/01/28 10:44:46;;;;;;;28.60;19.40;;;;;;;1.03;79.87;101274.96;129628;1264;114920;-69
2023/01/28 10:47:57;;;;;;;26.40;17.80;;;;;;;0.98;79.92;101274.42;129895;1260;114820;-65
2023/01/28 10:51:03;;;;;;;25.40;18.60;;;;;;;0.98;80.28;101271.95;129830;1261;114930;-67
2023/01/28 10:54:26;;;;;;;25.50;18.60;;;;;;;1.02;80.18;101272.48;130107;1270;128567;-67
2023/01/28 10:57:28;;;;;;;23.00;18.00;;;;;;;1.06;80.43;101275.34;129953;1276;116461;-64
2023/01/28 11:00:35;;;;;;;25.10;18.80;;;;;;;1.09;79.93;101276.22;130043;1256;114965;-68
2023/01/28 11:03:37;;;;;;;22.80;18.70;;;;;;;1.13;80.06;101282.05;130207;1269;114875;-69
2023/01/28 11:06:39;;;;;;;21.50;17.10;;;;;;;1.14;79.89;101282.25;130093;1259;115081;-68
2023/01/28 11:09:53;;;;;;;27.70;18.80;;;;;;;1.09;79.38;101283.09;130083;1272;114720;-68
2023/01/28 11:12:57;;;;;;;26.70;19.20;;;;;;;1.02;79.41;101282.35;129646;1262;115507;-69
2023/01/28 11:16:03;;;;;;;26.90;19.30;;;;;;;1.05;79.90;101281.14;130409;1254;114715;-68
2023/01/28 11:19:09;;;;;;;31.60;19.90;;;;;;;1.06;79.46;101281.33;130222;1257;115055;-68
2023/01/28 11:22:40;;;;;;;40.90;21.90;;;;;;;1.04;79.16;101280.42;130402;1256;114783;-69
2023/01/28 11:25:42;;;;;;;31.20;20.30;;;;;;;1.04;79.33;101273.74;130179;1272;127815;-68
2023/01/28 11:28:45;;;;;;;25.20;17.20;;;;;;;1.06;79.65;101271.30;130036;1269;115418;-65
2023/01/28 11:31:48;;;;;;;21.20;16.70;;;;;;;1.04;79.18;101268.29;130226;1269;114717;-67
2023/01/28 11:34:53;;;;;;;21.40;16.20;;;;;;;1.06;79.01;101274.29;130269;1256;114686;-65
2023/01/28 11:38:00;;;;;;;24.10;16.10;;;;;;;1.08;79.02;101268.30;130293;1253;114727;-67
2023/01/28 11:41:02;;;;;;;23.10;16.40;;;;;;;1.11;79.21;101275.70;130192;1256;114684;-65
2023/01/28 11:44:26;;;;;;;16.70;12.70;;;;;;;1.15;78.97;101277.50;130290;1257;115161;-68
2023/01/28 11:47:52;;;;;;;17.70;12.90;;;;;;;1.17;78.65;101277.50;129975;1275;115137;-66
2023/01/28 11:51:03;;;;;;;19.10;13.60;;;;;;;1.14;78.69;101278.90;129745;1260;114871;-65
2023/01/28 11:54:24;;;;;;;13.70;11.30;;;;;;;1.14;78.21;101277.50;130101;1254;114717;-65
2023/01/28 11:57:42;;;;;;;19.00;12.70;;;;;;;1.10;78.26;101284.14;129752;1262;114832;-64
2023/01/28 12:01:01;;;;;;;;;;;;;;;1.07;77.94;101279.91;130165;1269;128391;-64
2023/01/28 12:04:24;;;;;;;20.50;14.10;;;;;;;1.06;78.23;101280.61;129789;1270;115231;-67
2023/01/28 12:08:03;;;;;;;21.20;14.30;;;;;;;1.08;78.29;101274.46;129822;1259;114718;-66
2023/01/28 12:12:14;;;;;;;20.40;13.50;;;;;;;1.13;78.58;101273.98;129979;1270;114782;-67
2023/01/28 12:15:18;;;;;;;22.80;15.00;;;;;;;1.17;78.57;101270.65;129657;1257;114977;-65
2023/01/28 12:18:51;;;;;;;18.90;12.70;;;;;;;1.25;78.23;101262.40;129911;1260;128634;-69
2023/01/28 12:22:08;;;;;;;16.90;10.90;;;;;;;1.27;78.07;101267.88;130082;1254;114658;-68
2023/01/28 12:25:35;;;;;;;16.40;11.00;;;;;;;1.21;77.00;101268.38;130047;1256;114758;-65
2023/01/28 12:28:56;;;;;;;17.80;11.30;;;;;;;1.10;76.92;101261.45;130175;1254;115076;-64
2023/01/28 12:32:17;;;;;;;14.80;10.50;;;;;;;1.04;76.47;101263.19;130190;1275;114792;-67
2023/01/28 12:35:49;;;;;;;19.40;10.60;;;;;;;0.92;76.49;101255.92;130049;1267;128783;-68
2023/01/28 12:39:24;;;;;;;17.70;11.50;;;;;;;0.85;76.50;101263.78;130013;1272;116461;-67
2023/01/28 12:42:36;;;;;;;22.50;13.20;;;;;;;0.86;76.80;101260.27;130177;1256;114772;-64
2023/01/28 12:45:40;;;;;;;22.00;13.40;;;;;;;0.80;76.22;101255.66;130115;1260;114861;-65
2023/01/28 12:48:50;;;;;;;24.10;14.90;;;;;;;0.74;76.39;101259.84;129983;1257;114937;-64
2023/01/28 12:52:10;;;;;;;24.40;15.50;;;;;;;0.71;76.50;101265.45;130157;1275;128569;-66
2023/01/28 12:55:17;;;;;;;27.20;16.50;;;;;;;0.70;76.46;101269.14;130172;1261;115160;-67
2023/01/28 12:58:39;;;;;;;29.00;18.00;;;;;;;0.70;76.55;101269.84;130073;1256;114766;-65
2023/01/28 13:01:46;;;;;;;28.00;16.10;;;;;;;0.69;76.60;101271.05;129739;1257;114922;-64
2023/01/28 13:04:56;;;;;;;35.10;20.40;;;;;;;0.70;76.54;101267.90;129804;1261;114854;-68
2023/01/28 13:08:16;;;;;;;23.10;14.30;;;;;;;0.71;76.59;101274.77;130023;1264;128920;-65
2023/01/28 13:11:19;;;;;;;25.30;15.20;;;;;;;0.69;76.15;101271.40;130042;1272;115205;-64
2023/01/28 13:14:28;;;;;;;25.00;14.00;;;;;;;0.66;75.91;101268.93;129934;1256;115377;-67
2023/01/28 13:17:31;;;;;;;21.60;13.80;;;;;;;0.59;75.50;101269.95;130059;1275;114661;-64
2023/01/28 13:20:45;;;;;;;23.30;14.30;;;;;;;0.52;75.61;101272.71;129977;1254;114773;-67
2023/01/28 13:24:11;;;;;;;25.90;14.10;;;;;;;0.47;75.58;101271.80;130020;1272;128313;-64
2023/01/28 13:27:23;;;;;;;24.90;14.80;;;;;;;0.44;75.83;101275.45;129528;1275;115157;-67
2023/01/28 13:30:31;;;;;;;21.40;13.50;;;;;;;0.42;75.93;101272.80;129838;1260;114797;-66
2023/01/28 13:33:39;;;;;;;27.70;16.00;;;;;;;0.40;75.71;101272.62;129832;1262;114773;-68
2023/01/28 13:36:47;;;;;;;23.20;14.00;;;;;;;0.38;75.84;101271.90;130149;1272;114692;-68
2023/01/28 13:39:52;;;;;;;23.10;12.80;;;;;;;0.38;75.75;101273.11;129813;1269;128444;-67
2023/01/28 13:43:23;;;;;;;21.30;13.00;;;;;;;0.36;75.41;101280.83;129991;1271;115265;-69
2023/01/28 13:46:28;;;;;;;22.00;12.60;;;;;;;0.25;75.28;101288.11;130023;1257;114724;-69
2023/01/28 13:49:40;;;;;;;22.00;13.00;;;;;;;0.18;75.22;101289.82;129738;1261;114920;-70
2023/01/28 13:53:18;;;;;;;24.00;15.00;;;;;;;0.12;75.14;101284.68;130232;1257;115115;-67
2023/01/28 13:56:25;;;;;;;29.40;14.80;;;;;;;0.07;75.46;101286.91;130124;1275;128878;-68
2023/01/28 13:59:56;;;;;;;21.90;13.20;;;;;;;0.04;75.33;101289.67;130136;1254;115207;-66
2023/01/28 14:03:39;;;;;;;22.30;13.90;;;;;;;0.02;75.48;101294.39;130096;1256;114749;-67
2023/01/28 14:06:58;;;;;;;16.20;12.00;;;;;;;0.01;75.75;101295.28;129279;1266;115147;-65
2023/01/28 14:10:35;;;;;;;18.90;12.20;;;;;;;0.03;75.53;101295.29;129069;1276;114681;-67
2023/01/28 14:13:40;;;;;;;21.70;11.00;;;;;;;0.05;75.77;101302.70;129259;1281;128943;-70
2023/01/28 14:16:51;;;;;;;;;;;;;;;0.07;75.49;101308.50;129376;1283;114891;-65
2023/01/28 14:19:54;;;;;;;16.40;9.90;;;;;;;0.06;75.29;101307.45;129422;1264;115416;-61
2023/01/28 14:23:02;;;;;;;15.30;9.10;;;;;;;0.06;75.43;101310.60;129407;1260;114801;-64
2023/01/28 14:26:16;;;;;;;15.10;10.40;;;;;;;0.10;75.57;101308.02;129426;1260;114891;-65